European Causeway — C6RG7 — position and weather

sailwx.info

Track history (hours):
 
Tides and Currents Weather Stations Pressure Air Temp Water Temp Dewpoint Dewpoint Depression Visibility Wind Speed Wind Dir Waves Ship Positions

European Causeway

Operator: P & O Irish Sea

Last reported at 2017-Oct-20 19:30 UTC. Time now 2017-Oct-20 19:50 UTC.
Position N 54°55' W 005°34'.

Length 165 m; draft 5.5 m.

Type: Passenger vessel. MMSI: 311027000.

Date/timePositionNaut miles runAvg speedWind from/ knotsBaromVisibWave heightAir tempDewpointWater temp
2017-Oct-20 19:30N 54°55' W 005°34'918.1
2017-Oct-20 19:00N 54°51' W 005°48'0 0.2
2017-Oct-20 18:30N 54°51' W 005°48'0 0.0
2017-Oct-20 18:00N 54°51' W 005°48'0 0.0
2017-Oct-20 17:30N 54°51' W 005°48'611.7
2017-Oct-20 17:00N 54°54' W 005°39'816.0
2017-Oct-20 16:30N 54°58' W 005°27'816.0
2017-Oct-20 16:00N 55°01' W 005°14'714.0
2017-Oct-20 15:30N 54°59' W 005°02'1 2.3
2017-Oct-20 15:00N 54°58' W 005°01'0 0.0
2017-Oct-20 14:30N 54°58' W 005°01'1212.1
2017-Oct-20 13:30N 54°58' W 005°22'918.6
2017-Oct-20 13:00N 54°54' W 005°37'714.1
2017-Oct-20 12:31N 54°51' W 005°48'0 0.1
2017-Oct-20 12:00N 54°51' W 005°48'0 0.0
2017-Oct-20 11:30N 54°51' W 005°48'611.1
2017-Oct-20 11:00N 54°54' W 005°40'815.5
2017-Oct-20 10:30N 54°57' W 005°28'815.5
2017-Oct-20 10:00N 55°00' W 005°15'713.9
2017-Oct-20 09:29N 54°59' W 005°03'2 3.3
2017-Oct-20 09:00N 54°58' W 005°01'0 0.1
2017-Oct-20 08:20N 54°58' W 005°01'513.4
2017-Oct-20 07:57N 55°02' W 005°07'716.5
2017-Oct-20 07:30N 54°59' W 005°19'816.5
2017-Oct-20 07:01N 54°55' W 005°32'1018.7
2017-Oct-20 06:30N 54°52' W 005°47'1 2.2
2017-Oct-20 06:00N 54°51' W 005°48'0 0.0
2017-Oct-20 05:30N 54°51' W 005°48'0 0.0
2017-Oct-20 05:00N 54°51' W 005°48'714.5
2017-Oct-20 04:30N 54°54' W 005°37'1020.0
2017-Oct-20 04:00N 54°59' W 005°21'1016.1
2017-Oct-20 03:22N 54°59' W 005°03'2 6.1
2017-Oct-20 03:01N 54°58' W 005°01'0 0.0
2017-Oct-20 02:19N 54°58' W 005°01'0 0.0
2017-Oct-20 01:58N 54°58' W 005°01'0 0.0
2017-Oct-20 01:31N 54°58' W 005°01'0 0.0
2017-Oct-20 01:01N 54°58' W 005°01'610.5
2017-Oct-20 00:29N 55°02' W 005°08'917.8
2017-Oct-20 00:00N 54°58' W 005°22'917.9
2017-Oct-19 23:30N 54°54' W 005°36'815.5
2017-Oct-19 23:01N 54°51' W 005°48'0 0.2
2017-Oct-19 22:30N 54°51' W 005°48'0 0.0
2017-Oct-19 22:00N 54°51' W 005°48'0 0.0
2017-Oct-19 21:30N 54°51' W 005°48'0 0.0
2017-Oct-19 21:00N 54°51' W 005°48'4 8.0
2017-Oct-19 20:30N 54°53' W 005°42'918.5
2017-Oct-19 20:00N 54°58' W 005°28'918.3
2017-Oct-19 19:30N 55°02' W 005°14'714.8
2017-Oct-19 19:00N 54°58' W 005°02'1 1.6
2017-Oct-19 18:25N 54°58' W 005°01'0 0.0
2017-Oct-19 17:55N 54°58' W 005°01'0 0.3
2017-Oct-19 17:29N 54°58' W 005°01'612.2
2017-Oct-19 17:01N 55°01' W 005°09'917.8
2017-Oct-19 16:30N 54°57' W 005°22'918.1
2017-Oct-19 16:00N 54°54' W 005°37'713.8
2017-Oct-19 15:31N 54°51' W 005°48'0 0.1
2017-Oct-19 15:01N 54°51' W 005°48'0 0.0
2017-Oct-19 14:30N 54°51' W 005°48'611.0
2017-Oct-19 14:00N 54°54' W 005°40'715.0
2017-Oct-19 13:30N 54°57' W 005°28'714.8
2017-Oct-19 13:00N 55°00' W 005°16'814.1
2017-Oct-19 12:28N 54°59' W 005°03'2 4.0
2017-Oct-19 11:59N 54°58' W 005°01'0 0.0
2017-Oct-19 11:28N 54°58' W 005°01'510.7
2017-Oct-19 10:58N 55°02' W 005°07'816.8
2017-Oct-19 10:30N 54°59' W 005°20'816.3
2017-Oct-19 10:00N 54°55' W 005°33'917.3
2017-Oct-19 09:30N 54°52' W 005°47'1 2.6
2017-Oct-19 09:00N 54°51' W 005°48'0 0.0
2017-Oct-19 08:30N 54°51' W 005°48'5 9.4
2017-Oct-19 08:00N 54°53' W 005°41'917.7
2017-Oct-19 07:30N 54°58' W 005°27'918.0
2017-Oct-19 07:00N 55°01' W 005°13'713.7
2017-Oct-19 06:31N 54°58' W 005°02'1 1.8
2017-Oct-19 06:00N 54°58' W 005°01'0 0.0
2017-Oct-19 05:30N 54°58' W 005°01'0 0.2
2017-Oct-19 05:00N 54°58' W 005°01'510.4
2017-Oct-19 04:30N 55°02' W 005°07'816.6
2017-Oct-19 04:00N 54°58' W 005°20'918.9
2017-Oct-19 03:30N 54°54' W 005°35'815.7
2017-Oct-19 03:00N 54°51' W 005°48'0 0.2
2017-Oct-19 02:30N 54°51' W 005°48'0 0.0
2017-Oct-19 02:00N 54°51' W 005°48'0 0.0
2017-Oct-19 01:30N 54°51' W 005°48'0 0.0
2017-Oct-19 01:00N 54°51' W 005°48'4 8.5
2017-Oct-19 00:31N 54°53' W 005°42'918.1
2017-Oct-19 00:01N 54°57' W 005°28'917.8
2017-Oct-18 23:31N 55°01' W 005°14'714.2
2017-Oct-18 23:00N 54°58' W 005°02'1 1.8
2017-Oct-18 22:30N 54°58' W 005°01'0 0.0
2017-Oct-18 22:00N 54°58' W 005°01'0 0.0
2017-Oct-18 21:30N 54°58' W 005°01'0 0.0
2017-Oct-18 21:00N 54°58' W 005°01'5 9.6
2017-Oct-18 20:29N 55°02' W 005°06'816.1
2017-Oct-18 20:01N 54°59' W 005°19'918.6
2017-Oct-18 19:31N 54°55' W 005°33'917.7
2017-Oct-18 19:00N 54°51' W 005°48'0 0.6
2017-Oct-18 18:30N 54°51' W 005°48'0 0.0
2017-Oct-18 18:00N 54°51' W 005°48'0 0.0
2017-Oct-18 17:30N 54°51' W 005°48'612.4
2017-Oct-18 17:01N 54°54' W 005°39'917.2
2017-Oct-18 16:31N 54°58' W 005°25'917.5
2017-Oct-18 16:00N 55°01' W 005°11'713.7
2017-Oct-18 15:30N 54°58' W 005°01'0 0.0
2017-Oct-18 14:59N 54°58' W 005°01'5 5.2
2017-Oct-18 14:01N 55°02' W 005°07'918.9
2017-Oct-18 13:30N 54°58' W 005°22'918.5
2017-Oct-18 13:00N 54°54' W 005°37'714.1
2017-Oct-18 12:30N 54°51' W 005°48'0 0.1
2017-Oct-18 11:58N 54°51' W 005°48'0 0.0
2017-Oct-18 11:30N 54°51' W 005°48'612.5
2017-Oct-18 11:01N 54°54' W 005°39'918.7
2017-Oct-18 10:31N 54°59' W 005°25'1315.2
2017-Oct-18 09:41N 54°59' W 005°03'1 3.8
2017-Oct-18 09:18N 54°58' W 005°01'0 0.0
2017-Oct-18 09:00N 54°58' W 005°01'0 0.1
2017-Oct-18 08:24N 54°58' W 005°01'513.1
2017-Oct-18 07:59N 55°02' W 005°08'817.3
2017-Oct-18 07:31N 54°58' W 005°21'918.5
2017-Oct-18 07:01N 54°54' W 005°35'815.2
2017-Oct-18 06:30N 54°51' W 005°48'0 0.1
2017-Oct-18 06:00N 54°51' W 005°48'0 0.0
2017-Oct-18 05:31N 54°51' W 005°48'0 0.0
2017-Oct-18 05:00N 54°51' W 005°48'510.8
2017-Oct-18 04:30N 54°54' W 005°40'918.5
2017-Oct-18 04:00N 54°58' W 005°25'918.9
2017-Oct-18 03:30N 55°01' W 005°10'612.8
2017-Oct-18 03:00N 54°58' W 005°01'0 0.0
2017-Oct-18 02:30N 54°58' W 005°01'0 0.0
2017-Oct-18 02:00N 54°58' W 005°01'0 0.0
2017-Oct-18 01:30N 54°58' W 005°01'0 0.1
2017-Oct-18 01:00N 54°58' W 005°01'511.0
2017-Oct-18 00:30N 55°02' W 005°08'1122.0
2017-Oct-18 00:01N 54°57' W 005°25'1121.4
2017-Oct-17 23:30N 54°53' W 005°42'4 8.1
2017-Oct-17 23:00N 54°51' W 005°48'0 0.0
2017-Oct-17 22:30N 54°51' W 005°48'0 0.0
2017-Oct-17 22:00N 54°51' W 005°48'0 0.0
2017-Oct-17 21:30N 54°51' W 005°48'1 2.8
2017-Oct-17 21:00N 54°52' W 005°47'1121.8
2017-Oct-17 20:30N 54°56' W 005°30'1122.3
2017-Oct-17 20:00N 55°01' W 005°13'714.5
2017-Oct-17 19:30N 54°58' W 005°02'0 0.8
2017-Oct-17 19:00N 54°58' W 005°01'0 0.0
2017-Oct-17 18:30N 54°58' W 005°01'0 0.0
2017-Oct-17 18:00N 54°58' W 005°01'0 0.6
2017-Oct-17 17:30N 54°58' W 005°01'713.4
2017-Oct-17 17:01N 55°01' W 005°12'1121.6
2017-Oct-17 16:30N 54°56' W 005°29'1121.6
2017-Oct-17 16:00N 54°52' W 005°46'2 3.1
2017-Oct-17 15:30N 54°51' W 005°48'0 0.0
2017-Oct-17 15:00N 54°51' W 005°48'0 0.0
2017-Oct-17 14:30N 54°51' W 005°48'0 0.0
2017-Oct-17 14:00N 54°51' W 005°48'2 4.7
2017-Oct-17 13:30N 54°53' W 005°45'1121.6
2017-Oct-17 13:00N 54°57' W 005°28'1020.4
2017-Oct-17 12:30N 55°01' W 005°12'713.9
2017-Oct-17 12:00N 54°58' W 005°01'0 0.0
2017-Oct-17 11:30N 54°58' W 005°01'0 0.0
2017-Oct-17 11:00N 54°58' W 005°01'0 0.0
2017-Oct-17 10:30N 54°58' W 005°01'5 9.7
2017-Oct-17 09:56N 55°02' W 005°07'921.5
2017-Oct-17 09:30N 54°58' W 005°22'1121.4
2017-Oct-17 09:00N 54°53' W 005°39'6 9.5
2017-Oct-17 08:26N 54°51' W 005°48'0 0.0
2017-Oct-17 07:56N 54°51' W 005°48'0 0.0
2017-Oct-17 07:30N 54°51' W 005°48'0 0.0
2017-Oct-17 07:00N 54°51' W 005°48'0 0.0
2017-Oct-17 06:30N 54°51' W 005°48'5 9.9
2017-Oct-17 06:01N 54°53' W 005°41'1019.1
2017-Oct-17 05:30N 54°58' W 005°26'918.1
2017-Oct-17 05:00N 55°02' W 005°11'713.9
2017-Oct-17 04:30N 54°58' W 005°01'0 0.5
2017-Oct-17 04:00N 54°58' W 005°01'0 0.0
2017-Oct-17 03:30N 54°58' W 005°01'0 0.0
2017-Oct-17 02:55N 54°58' W 005°01'0 0.0
2017-Oct-17 02:28N 54°58' W 005°01'0 0.0
2017-Oct-17 01:58N 54°58' W 005°01'0 0.0
2017-Oct-17 01:25N 54°58' W 005°01'0 0.0
2017-Oct-17 00:49N 54°58' W 005°01'0 0.0
2017-Oct-17 00:28N 54°58' W 005°01'0 0.0
2017-Oct-16 23:58N 54°58' W 005°01'0 0.0
2017-Oct-16 23:28N 54°58' W 005°01'0 0.0
2017-Oct-16 21:34N 54°58' W 005°01'0 0.0
2017-Oct-16 21:13N 54°58' W 005°01'0 0.0
2017-Oct-16 19:01N 54°58' W 005°01'0 0.0
2017-Oct-16 16:49N 54°58' W 005°01'0 0.0
2017-Oct-16 16:29N 54°58' W 005°01'0 0.0
2017-Oct-16 15:59N 54°58' W 005°01'0 0.0
2017-Oct-16 15:30N 54°58' W 005°01'0 0.0
2017-Oct-16 14:46N 54°58' W 005°01'0 0.0
2017-Oct-16 14:00N 54°58' W 005°01'0 0.0
2017-Oct-16 13:30N 54°58' W 005°01'0 0.0
2017-Oct-16 13:00N 54°58' W 005°01'0 0.0
2017-Oct-16 12:30N 54°58' W 005°01'0 0.0
2017-Oct-16 12:00N 54°58' W 005°01'0 0.0
2017-Oct-16 11:30N 54°58' W 005°01'5 9.4
2017-Oct-16 10:56N 55°02' W 005°08'817.8
2017-Oct-16 10:31N 54°58' W 005°20'816.9
2017-Oct-16 10:01N 54°55' W 005°33'916.9
2017-Oct-16 09:29N 54°52' W 005°47'1 2.0
2017-Oct-16 09:01N 54°51' W 005°48'0 0.0
2017-Oct-16 08:30N 54°51' W 005°48'510.4
2017-Oct-16 08:00N 54°54' W 005°40'918.0
2017-Oct-16 07:30N 54°58' W 005°26'917.6
2017-Oct-16 07:00N 55°01' W 005°12'713.9
2017-Oct-16 06:31N 54°58' W 005°01'0 0.7
2017-Oct-16 06:00N 54°58' W 005°01'0 0.0
2017-Oct-16 05:26N 54°58' W 005°01'0 0.2
2017-Oct-16 04:59N 54°58' W 005°01'612.2
2017-Oct-16 04:30N 55°02' W 005°09'918.0
2017-Oct-16 04:00N 54°57' W 005°23'918.8
2017-Oct-16 03:31N 54°54' W 005°38'612.9
2017-Oct-16 03:00N 54°51' W 005°48'0 0.0
2017-Oct-16 02:30N 54°51' W 005°48'0 0.0
2017-Oct-16 02:00N 54°51' W 005°48'0 0.0
2017-Oct-16 01:31N 54°51' W 005°48'0 0.0
2017-Oct-16 01:01N 54°51' W 005°48'0 0.0
2017-Oct-16 00:31N 54°51' W 005°48'0 0.0
2017-Oct-16 00:00N 54°51' W 005°48'5 9.8
2017-Oct-15 23:31N 54°53' W 005°41'918.3
2017-Oct-15 23:00N 54°58' W 005°27'1118.1
2017-Oct-15 22:23N 55°02' W 005°08'615.2
2017-Oct-15 22:00N 54°58' W 005°01'0 0.2
2017-Oct-15 21:30N 54°58' W 005°01'0 0.0
2017-Oct-15 21:00N 54°58' W 005°01'611.0
2017-Oct-15 20:25N 55°01' W 005°10'818.4
2017-Oct-15 19:58N 54°58' W 005°23'918.3
2017-Oct-15 19:30N 54°54' W 005°36'714.9
2017-Oct-15 19:01N 54°51' W 005°48'0 0.1
2017-Oct-15 18:30N 54°51' W 005°48'0 0.0
2017-Oct-15 18:00N 54°51' W 005°48'0 0.0
2017-Oct-15 17:30N 54°51' W 005°48'612.3
2017-Oct-15 17:00N 54°54' W 005°39'918.0
2017-Oct-15 16:30N 54°58' W 005°25'918.2
2017-Oct-15 16:00N 55°01' W 005°10'612.5
2017-Oct-15 15:30N 54°58' W 005°01'0 0.0
2017-Oct-15 14:59N 54°58' W 005°01'0 0.0
2017-Oct-15 14:00N 54°58' W 005°01'6 9.3
2017-Oct-15 13:23N 55°01' W 005°09'717.9
2017-Oct-15 13:00N 54°59' W 005°19'918.2
2017-Oct-15 12:30N 54°55' W 005°33'917.6
2017-Oct-15 12:01N 54°51' W 005°48'1 1.1
2017-Oct-15 11:30N 54°51' W 005°48'0 0.0
2017-Oct-15 11:00N 54°51' W 005°48'0 0.0
2017-Oct-15 10:30N 54°51' W 005°48'0 0.0
2017-Oct-15 10:00N 54°51' W 005°48'0 0.0
2017-Oct-15 09:30N 54°51' W 005°48'0 0.0
2017-Oct-15 09:00N 54°51' W 005°48'0 0.0
2017-Oct-15 08:30N 54°51' W 005°48'612.5
2017-Oct-15 08:00N 54°54' W 005°39'917.3
2017-Oct-15 07:30N 54°58' W 005°25'917.5
2017-Oct-15 07:00N 55°02' W 005°11'712.3
2017-Oct-15 06:26N 54°58' W 005°01'0 0.0
2017-Oct-15 06:01N 54°58' W 005°01'0 0.0
2017-Oct-15 05:31N 54°58' W 005°01'0 0.0
2017-Oct-15 05:00N 54°58' W 005°01'0 0.0
2017-Oct-15 04:30N 54°58' W 005°01'0 0.0
2017-Oct-15 04:00N 54°58' W 005°01'0 0.0
2017-Oct-15 03:31N 54°58' W 005°01'0 0.0
2017-Oct-15 03:01N 54°58' W 005°01'0 0.0
2017-Oct-15 02:30N 54°58' W 005°01'0 0.0
2017-Oct-15 02:00N 54°58' W 005°01'0 0.0
2017-Oct-15 01:31N 54°58' W 005°01'0 0.0
2017-Oct-15 01:00N 54°58' W 005°01'0 0.0
2017-Oct-15 00:30N 54°58' W 005°01'0 0.0
2017-Oct-15 00:00N 54°58' W 005°01'0 0.0
2017-Oct-14 23:30N 54°58' W 005°01'0 0.0
2017-Oct-14 23:00N 54°58' W 005°01'0 0.0
2017-Oct-14 22:31N 54°58' W 005°01'0 0.0
2017-Oct-14 22:00N 54°58' W 005°01'0 0.0
2017-Oct-14 21:28N 54°58' W 005°01'0 0.3
2017-Oct-14 21:00N 54°58' W 005°01'612.9
2017-Oct-14 20:30N 55°01' W 005°11'918.8
2017-Oct-14 20:00N 54°57' W 005°25'918.5
2017-Oct-14 19:30N 54°53' W 005°40'510.1
2017-Oct-14 19:00N 54°51' W 005°48'0 0.0
2017-Oct-14 18:30N 54°51' W 005°48'0 0.0
2017-Oct-14 18:00N 54°51' W 005°48'0 0.0
2017-Oct-14 17:30N 54°51' W 005°48'4 7.9
2017-Oct-14 17:00N 54°53' W 005°42'917.8
2017-Oct-14 16:31N 54°57' W 005°28'917.9
2017-Oct-14 16:00N 55°01' W 005°14'714.0
2017-Oct-14 15:30N 54°59' W 005°02'1 2.8
2017-Oct-14 14:59N 54°58' W 005°01'0 0.0
2017-Oct-14 14:30N 54°58' W 005°01'5 9.2
2017-Oct-14 13:57N 55°02' W 005°07'716.8
2017-Oct-14 13:30N 54°59' W 005°19'816.9
2017-Oct-14 13:00N 54°55' W 005°32'917.4
2017-Oct-14 12:30N 54°52' W 005°46'2 3.3
2017-Oct-14 12:00N 54°51' W 005°48'0 0.0
2017-Oct-14 11:30N 54°51' W 005°48'4 8.3
2017-Oct-14 11:00N 54°53' W 005°42'917.8
2017-Oct-14 10:30N 54°58' W 005°28'917.2
2017-Oct-14 10:00N 55°01' W 005°14'713.9
2017-Oct-14 09:30N 54°59' W 005°03'2 3.0
2017-Oct-14 09:00N 54°58' W 005°01'0 0.0
2017-Oct-14 08:30N 54°58' W 005°01'5 9.7
2017-Oct-14 07:57N 55°02' W 005°07'918.6
2017-Oct-14 07:29N 54°58' W 005°21'918.4
2017-Oct-14 07:00N 54°54' W 005°35'816.4
2017-Oct-14 06:31N 54°51' W 005°48'0 0.2
2017-Oct-14 06:00N 54°51' W 005°48'0 0.0
2017-Oct-14 05:30N 54°51' W 005°48'0 0.0
2017-Oct-14 05:00N 54°51' W 005°48'5 9.1
2017-Oct-14 04:30N 54°53' W 005°41'917.7
2017-Oct-14 04:00N 54°57' W 005°27'917.8
2017-Oct-14 03:30N 55°01' W 005°13'713.4
2017-Oct-14 03:01N 54°59' W 005°02'1 2.7
2017-Oct-14 02:30N 54°58' W 005°01'0 0.0
2017-Oct-14 02:00N 54°58' W 005°01'0 0.0
2017-Oct-14 01:31N 54°58' W 005°01'0 0.0
2017-Oct-14 01:00N 54°58' W 005°01'510.0
2017-Oct-14 00:30N 55°02' W 005°07'918.0
2017-Oct-14 00:01N 54°58' W 005°21'918.8
2017-Oct-13 23:31N 54°54' W 005°36'815.1
2017-Oct-13 23:00N 54°51' W 005°48'0 0.2
2017-Oct-13 22:30N 54°51' W 005°48'0 0.0
2017-Oct-13 22:00N 54°51' W 005°48'0 0.0
2017-Oct-13 21:30N 54°51' W 005°48'0 0.0
2017-Oct-13 21:00N 54°51' W 005°48'4 7.6
2017-Oct-13 20:31N 54°53' W 005°43'917.3
2017-Oct-13 20:01N 54°57' W 005°29'917.6
2017-Oct-13 19:31N 55°00' W 005°15'714.6
2017-Oct-13 19:00N 54°59' W 005°03'2 3.1
2017-Oct-13 18:30N 54°58' W 005°01'0 0.0
2017-Oct-13 18:00N 54°58' W 005°01'0 0.0
2017-Oct-13 17:30N 54°58' W 005°01'6 9.4
2017-Oct-13 16:53N 55°01' W 005°09'718.1
2017-Oct-13 16:30N 54°59' W 005°19'918.2
2017-Oct-13 16:00N 54°55' W 005°34'917.5
2017-Oct-13 15:30N 54°51' W 005°48'0 0.6
2017-Oct-13 15:00N 54°51' W 005°48'0 0.0
2017-Oct-13 14:30N 54°51' W 005°48'713.3
2017-Oct-13 14:01N 54°54' W 005°38'917.8
2017-Oct-13 13:31N 54°58' W 005°24'918.3
2017-Oct-13 12:59N 55°01' W 005°09'611.9
2017-Oct-13 12:30N 54°58' W 005°01'0 0.0
2017-Oct-13 11:55N 54°58' W 005°01'0 0.0
2017-Oct-13 11:29N 54°58' W 005°01'5 9.0
2017-Oct-13 10:54N 55°02' W 005°07'718.7
2017-Oct-13 10:30N 54°59' W 005°19'1019.2
2017-Oct-13 10:00N 54°54' W 005°34'817.1
2017-Oct-13 09:30N 54°51' W 005°48'0 0.3
2017-Oct-13 09:00N 54°51' W 005°48'0 0.0
2017-Oct-13 08:30N 54°51' W 005°48'610.8
2017-Oct-13 08:00N 54°54' W 005°40'917.7
2017-Oct-13 07:30N 54°58' W 005°27'917.0
2017-Oct-13 07:00N 55°01' W 005°13'714.0
2017-Oct-13 06:30N 54°58' W 005°02'1 1.2
2017-Oct-13 05:56N 54°58' W 005°01'0 0.0
2017-Oct-13 05:26N 54°58' W 005°01'0 0.0
2017-Oct-13 04:56N 54°58' W 005°01'511.4
2017-Oct-13 04:29N 55°02' W 005°06'816.5
2017-Oct-13 04:00N 54°59' W 005°19'918.8
2017-Oct-13 03:30N 54°55' W 005°33'917.7
2017-Oct-13 03:00N 54°51' W 005°48'0 0.2
2017-Oct-13 02:30N 54°51' W 005°48'0 0.0
2017-Oct-13 02:00N 54°51' W 005°48'0 0.0
2017-Oct-13 01:30N 54°51' W 005°48'0 0.0
2017-Oct-13 01:00N 54°51' W 005°48'3 5.7
2017-Oct-13 00:30N 54°53' W 005°44'1020.0
2017-Oct-13 00:00N 54°57' W 005°29'1019.8
2017-Oct-12 23:30N 55°01' W 005°13'713.1
2017-Oct-12 23:01N 54°59' W 005°02'1 2.1
2017-Oct-12 22:30N 54°58' W 005°01'0 0.0
2017-Oct-12 22:00N 54°58' W 005°01'0 0.0
2017-Oct-12 21:30N 54°58' W 005°01'0 0.0
2017-Oct-12 21:00N 54°58' W 005°01'5 9.4
2017-Oct-12 20:28N 55°02' W 005°06'817.8
2017-Oct-12 20:00N 54°58' W 005°20'918.1
2017-Oct-12 19:30N 54°55' W 005°34'917.0
2017-Oct-12 19:00N 54°51' W 005°48'0 0.8
2017-Oct-12 18:30N 54°51' W 005°48'0 0.0
2017-Oct-12 18:00N 54°51' W 005°48'0 0.0
2017-Oct-12 17:30N 54°51' W 005°48'4 7.8
2017-Oct-12 17:00N 54°53' W 005°42'917.4
2017-Oct-12 16:30N 54°57' W 005°29'917.2
2017-Oct-12 16:00N 55°01' W 005°15'714.1
2017-Oct-12 15:30N 54°59' W 005°03'2 3.7
2017-Oct-12 15:00N 54°58' W 005°01'0 0.0
2017-Oct-12 14:30N 54°58' W 005°01'6 9.3
2017-Oct-12 13:55N 55°02' W 005°08'717.2
2017-Oct-12 13:30N 54°58' W 005°19'917.2
2017-Oct-12 13:01N 54°55' W 005°32'918.4
2017-Oct-12 12:30N 54°52' W 005°47'1 1.8
2017-Oct-12 11:55N 54°51' W 005°48'0 0.0
2017-Oct-12 11:29N 54°51' W 005°48'5 9.5
2017-Oct-12 11:00N 54°54' W 005°42'917.1
2017-Oct-12 10:30N 54°57' W 005°28'917.4
2017-Oct-12 10:00N 55°01' W 005°14'714.0
2017-Oct-12 09:30N 54°59' W 005°03'2 2.8
2017-Oct-12 08:58N 54°58' W 005°01'0 0.1
2017-Oct-12 08:26N 54°58' W 005°01'511.1
2017-Oct-12 07:57N 55°02' W 005°08'919.4
2017-Oct-12 07:30N 54°58' W 005°21'919.1
2017-Oct-12 07:00N 54°54' W 005°36'714.5
2017-Oct-12 06:30N 54°51' W 005°48'0 0.1
2017-Oct-12 06:00N 54°51' W 005°48'0 0.0
2017-Oct-12 05:30N 54°51' W 005°48'0 0.0
2017-Oct-12 05:00N 54°51' W 005°48'5 9.9
2017-Oct-12 04:30N 54°54' W 005°41'1020.3
2017-Oct-12 04:01N 54°58' W 005°25'1019.5
2017-Oct-12 03:30N 55°02' W 005°09'610.4
2017-Oct-12 02:55N 54°58' W 005°01'0 0.0
2017-Oct-12 02:28N 54°58' W 005°01'0 0.0
2017-Oct-12 01:43N 54°58' W 005°01'0 0.0
2017-Oct-12 01:28N 54°58' W 005°01'0 0.0
2017-Oct-12 01:00N 54°58' W 005°01'5 9.6
2017-Oct-12 00:28N 55°02' W 005°07'817.0
2017-Oct-12 00:01N 54°58' W 005°19'918.6
2017-Oct-11 23:31N 54°55' W 005°34'917.2
2017-Oct-11 23:00N 54°51' W 005°48'0 0.3
2017-Oct-11 22:30N 54°51' W 005°48'0 0.0
2017-Oct-11 22:00N 54°51' W 005°48'0 0.0
2017-Oct-11 21:30N 54°51' W 005°48'0 0.0
2017-Oct-11 21:00N 54°51' W 005°48'5 9.3
2017-Oct-11 20:30N 54°53' W 005°41'917.9
2017-Oct-11 20:00N 54°57' W 005°27'816.6
2017-Oct-11 19:30N 55°01' W 005°14'713.8
2017-Oct-11 19:00N 54°59' W 005°02'1 1.8
2017-Oct-11 18:14N 54°58' W 005°01'0 0.0
2017-Oct-11 17:56N 54°58' W 005°01'0 0.0
2017-Oct-11 17:29N 54°58' W 005°01'5 9.3
2017-Oct-11 16:55N 55°02' W 005°07'12 0.7
2017-Oct-11 00:00N 54°57' W 005°26'816.5
2017-Oct-10 23:30N 55°01' W 005°13'713.1
2017-Oct-10 23:00N 54°59' W 005°02'1 2.4
2017-Oct-10 22:30N 54°58' W 005°01'0 0.0
2017-Oct-10 22:00N 54°58' W 005°01'0 0.0
2017-Oct-10 21:29N 54°58' W 005°01'0 0.0
2017-Oct-10 21:00N 54°58' W 005°01'5 9.4
2017-Oct-10 20:25N 55°02' W 005°08'717.4
2017-Oct-10 20:00N 54°58' W 005°19'  
Track history (hours):
 
Tides and Currents Weather Stations Pressure Air Temp Water Temp Dewpoint Dewpoint Depression Visibility Wind Speed Wind Dir Waves Ship Positions

European Causeway

Operator: P & O Irish Sea

Last reported at 2017-Oct-20 19:30 UTC. Time now 2017-Oct-20 19:50 UTC.
Position N 54°55' W 005°34'.

Length 165 m; draft 5.5 m.

Type: Passenger vessel. MMSI: 311027000.

Date/timePositionNaut miles runAvg speedWind from/ knotsBaromVisibWave heightAir tempDewpointWater temp
2017-Oct-20 19:30N 54°55' W 005°34'918.1
2017-Oct-20 19:00N 54°51' W 005°48'0 0.2
2017-Oct-20 18:30N 54°51' W 005°48'0 0.0
2017-Oct-20 18:00N 54°51' W 005°48'0 0.0
2017-Oct-20 17:30N 54°51' W 005°48'611.7
2017-Oct-20 17:00N 54°54' W 005°39'816.0
2017-Oct-20 16:30N 54°58' W 005°27'816.0
2017-Oct-20 16:00N 55°01' W 005°14'714.0
2017-Oct-20 15:30N 54°59' W 005°02'1 2.3
2017-Oct-20 15:00N 54°58' W 005°01'0 0.0
2017-Oct-20 14:30N 54°58' W 005°01'1212.1
2017-Oct-20 13:30N 54°58' W 005°22'918.6
2017-Oct-20 13:00N 54°54' W 005°37'714.1
2017-Oct-20 12:31N 54°51' W 005°48'0 0.1
2017-Oct-20 12:00N 54°51' W 005°48'0 0.0
2017-Oct-20 11:30N 54°51' W 005°48'611.1
2017-Oct-20 11:00N 54°54' W 005°40'815.5
2017-Oct-20 10:30N 54°57' W 005°28'815.5
2017-Oct-20 10:00N 55°00' W 005°15'713.9
2017-Oct-20 09:29N 54°59' W 005°03'2 3.3
2017-Oct-20 09:00N 54°58' W 005°01'0 0.1
2017-Oct-20 08:20N 54°58' W 005°01'513.4
2017-Oct-20 07:57N 55°02' W 005°07'716.5
2017-Oct-20 07:30N 54°59' W 005°19'816.5
2017-Oct-20 07:01N 54°55' W 005°32'1018.7
2017-Oct-20 06:30N 54°52' W 005°47'1 2.2
2017-Oct-20 06:00N 54°51' W 005°48'0 0.0
2017-Oct-20 05:30N 54°51' W 005°48'0 0.0
2017-Oct-20 05:00N 54°51' W 005°48'714.5
2017-Oct-20 04:30N 54°54' W 005°37'1020.0
2017-Oct-20 04:00N 54°59' W 005°21'1016.1
2017-Oct-20 03:22N 54°59' W 005°03'2 6.1
2017-Oct-20 03:01N 54°58' W 005°01'0 0.0
2017-Oct-20 02:19N 54°58' W 005°01'0 0.0
2017-Oct-20 01:58N 54°58' W 005°01'0 0.0
2017-Oct-20 01:31N 54°58' W 005°01'0 0.0
2017-Oct-20 01:01N 54°58' W 005°01'610.5
2017-Oct-20 00:29N 55°02' W 005°08'917.8
2017-Oct-20 00:00N 54°58' W 005°22'917.9
2017-Oct-19 23:30N 54°54' W 005°36'815.5
2017-Oct-19 23:01N 54°51' W 005°48'0 0.2
2017-Oct-19 22:30N 54°51' W 005°48'0 0.0
2017-Oct-19 22:00N 54°51' W 005°48'0 0.0
2017-Oct-19 21:30N 54°51' W 005°48'0 0.0
2017-Oct-19 21:00N 54°51' W 005°48'4 8.0
2017-Oct-19 20:30N 54°53' W 005°42'918.5
2017-Oct-19 20:00N 54°58' W 005°28'918.3
2017-Oct-19 19:30N 55°02' W 005°14'714.8
2017-Oct-19 19:00N 54°58' W 005°02'1 1.6
2017-Oct-19 18:25N 54°58' W 005°01'0 0.0
2017-Oct-19 17:55N 54°58' W 005°01'0 0.3
2017-Oct-19 17:29N 54°58' W 005°01'612.2
2017-Oct-19 17:01N 55°01' W 005°09'917.8
2017-Oct-19 16:30N 54°57' W 005°22'918.1
2017-Oct-19 16:00N 54°54' W 005°37'713.8
2017-Oct-19 15:31N 54°51' W 005°48'0 0.1
2017-Oct-19 15:01N 54°51' W 005°48'0 0.0
2017-Oct-19 14:30N 54°51' W 005°48'611.0
2017-Oct-19 14:00N 54°54' W 005°40'715.0
2017-Oct-19 13:30N 54°57' W 005°28'714.8
2017-Oct-19 13:00N 55°00' W 005°16'814.1
2017-Oct-19 12:28N 54°59' W 005°03'2 4.0
2017-Oct-19 11:59N 54°58' W 005°01'0 0.0
2017-Oct-19 11:28N 54°58' W 005°01'510.7
2017-Oct-19 10:58N 55°02' W 005°07'816.8
2017-Oct-19 10:30N 54°59' W 005°20'816.3
2017-Oct-19 10:00N 54°55' W 005°33'917.3
2017-Oct-19 09:30N 54°52' W 005°47'1 2.6
2017-Oct-19 09:00N 54°51' W 005°48'0 0.0
2017-Oct-19 08:30N 54°51' W 005°48'5 9.4
2017-Oct-19 08:00N 54°53' W 005°41'917.7
2017-Oct-19 07:30N 54°58' W 005°27'918.0
2017-Oct-19 07:00N 55°01' W 005°13'713.7
2017-Oct-19 06:31N 54°58' W 005°02'1 1.8
2017-Oct-19 06:00N 54°58' W 005°01'0 0.0
2017-Oct-19 05:30N 54°58' W 005°01'0 0.2
2017-Oct-19 05:00N 54°58' W 005°01'510.4
2017-Oct-19 04:30N 55°02' W 005°07'816.6
2017-Oct-19 04:00N 54°58' W 005°20'918.9
2017-Oct-19 03:30N 54°54' W 005°35'815.7
2017-Oct-19 03:00N 54°51' W 005°48'0 0.2
2017-Oct-19 02:30N 54°51' W 005°48'0 0.0
2017-Oct-19 02:00N 54°51' W 005°48'0 0.0
2017-Oct-19 01:30N 54°51' W 005°48'0 0.0
2017-Oct-19 01:00N 54°51' W 005°48'4 8.5
2017-Oct-19 00:31N 54°53' W 005°42'918.1
2017-Oct-19 00:01N 54°57' W 005°28'917.8
2017-Oct-18 23:31N 55°01' W 005°14'714.2
2017-Oct-18 23:00N 54°58' W 005°02'1 1.8
2017-Oct-18 22:30N 54°58' W 005°01'0 0.0
2017-Oct-18 22:00N 54°58' W 005°01'0 0.0
2017-Oct-18 21:30N 54°58' W 005°01'0 0.0
2017-Oct-18 21:00N 54°58' W 005°01'5 9.6
2017-Oct-18 20:29N 55°02' W 005°06'816.1
2017-Oct-18 20:01N 54°59' W 005°19'918.6
2017-Oct-18 19:31N 54°55' W 005°33'917.7
2017-Oct-18 19:00N 54°51' W 005°48'0 0.6
2017-Oct-18 18:30N 54°51' W 005°48'0 0.0
2017-Oct-18 18:00N 54°51' W 005°48'0 0.0
2017-Oct-18 17:30N 54°51' W 005°48'612.4
2017-Oct-18 17:01N 54°54' W 005°39'917.2
2017-Oct-18 16:31N 54°58' W 005°25'917.5
2017-Oct-18 16:00N 55°01' W 005°11'713.7
2017-Oct-18 15:30N 54°58' W 005°01'0 0.0
2017-Oct-18 14:59N 54°58' W 005°01'5 5.2
2017-Oct-18 14:01N 55°02' W 005°07'918.9
2017-Oct-18 13:30N 54°58' W 005°22'918.5
2017-Oct-18 13:00N 54°54' W 005°37'714.1
2017-Oct-18 12:30N 54°51' W 005°48'0 0.1
2017-Oct-18 11:58N 54°51' W 005°48'0 0.0
2017-Oct-18 11:30N 54°51' W 005°48'612.5
2017-Oct-18 11:01N 54°54' W 005°39'918.7
2017-Oct-18 10:31N 54°59' W 005°25'1315.2
2017-Oct-18 09:41N 54°59' W 005°03'1 3.8
2017-Oct-18 09:18N 54°58' W 005°01'0 0.0
2017-Oct-18 09:00N 54°58' W 005°01'0 0.1
2017-Oct-18 08:24N 54°58' W 005°01'513.1
2017-Oct-18 07:59N 55°02' W 005°08'817.3
2017-Oct-18 07:31N 54°58' W 005°21'918.5
2017-Oct-18 07:01N 54°54' W 005°35'815.2
2017-Oct-18 06:30N 54°51' W 005°48'0 0.1
2017-Oct-18 06:00N 54°51' W 005°48'0 0.0
2017-Oct-18 05:31N 54°51' W 005°48'0 0.0
2017-Oct-18 05:00N 54°51' W 005°48'510.8
2017-Oct-18 04:30N 54°54' W 005°40'918.5
2017-Oct-18 04:00N 54°58' W 005°25'918.9
2017-Oct-18 03:30N 55°01' W 005°10'612.8
2017-Oct-18 03:00N 54°58' W 005°01'0 0.0
2017-Oct-18 02:30N 54°58' W 005°01'0 0.0
2017-Oct-18 02:00N 54°58' W 005°01'0 0.0
2017-Oct-18 01:30N 54°58' W 005°01'0 0.1
2017-Oct-18 01:00N 54°58' W 005°01'511.0
2017-Oct-18 00:30N 55°02' W 005°08'1122.0
2017-Oct-18 00:01N 54°57' W 005°25'1121.4
2017-Oct-17 23:30N 54°53' W 005°42'4 8.1
2017-Oct-17 23:00N 54°51' W 005°48'0 0.0
2017-Oct-17 22:30N 54°51' W 005°48'0 0.0
2017-Oct-17 22:00N 54°51' W 005°48'0 0.0
2017-Oct-17 21:30N 54°51' W 005°48'1 2.8
2017-Oct-17 21:00N 54°52' W 005°47'1121.8
2017-Oct-17 20:30N 54°56' W 005°30'1122.3
2017-Oct-17 20:00N 55°01' W 005°13'714.5
2017-Oct-17 19:30N 54°58' W 005°02'0 0.8
2017-Oct-17 19:00N 54°58' W 005°01'0 0.0
2017-Oct-17 18:30N 54°58' W 005°01'0 0.0
2017-Oct-17 18:00N 54°58' W 005°01'0 0.6
2017-Oct-17 17:30N 54°58' W 005°01'713.4
2017-Oct-17 17:01N 55°01' W 005°12'1121.6
2017-Oct-17 16:30N 54°56' W 005°29'1121.6
2017-Oct-17 16:00N 54°52' W 005°46'2 3.1
2017-Oct-17 15:30N 54°51' W 005°48'0 0.0
2017-Oct-17 15:00N 54°51' W 005°48'0 0.0
2017-Oct-17 14:30N 54°51' W 005°48'0 0.0
2017-Oct-17 14:00N 54°51' W 005°48'2 4.7
2017-Oct-17 13:30N 54°53' W 005°45'1121.6
2017-Oct-17 13:00N 54°57' W 005°28'1020.4
2017-Oct-17 12:30N 55°01' W 005°12'713.9
2017-Oct-17 12:00N 54°58' W 005°01'0 0.0
2017-Oct-17 11:30N 54°58' W 005°01'0 0.0
2017-Oct-17 11:00N 54°58' W 005°01'0 0.0
2017-Oct-17 10:30N 54°58' W 005°01'5 9.7
2017-Oct-17 09:56N 55°02' W 005°07'921.5
2017-Oct-17 09:30N 54°58' W 005°22'1121.4
2017-Oct-17 09:00N 54°53' W 005°39'6 9.5
2017-Oct-17 08:26N 54°51' W 005°48'0 0.0
2017-Oct-17 07:56N 54°51' W 005°48'0 0.0
2017-Oct-17 07:30N 54°51' W 005°48'0 0.0
2017-Oct-17 07:00N 54°51' W 005°48'0 0.0
2017-Oct-17 06:30N 54°51' W 005°48'5 9.9
2017-Oct-17 06:01N 54°53' W 005°41'1019.1
2017-Oct-17 05:30N 54°58' W 005°26'918.1
2017-Oct-17 05:00N 55°02' W 005°11'713.9
2017-Oct-17 04:30N 54°58' W 005°01'0 0.5
2017-Oct-17 04:00N 54°58' W 005°01'0 0.0
2017-Oct-17 03:30N 54°58' W 005°01'0 0.0
2017-Oct-17 02:55N 54°58' W 005°01'0 0.0
2017-Oct-17 02:28N 54°58' W 005°01'0 0.0
2017-Oct-17 01:58N 54°58' W 005°01'0 0.0
2017-Oct-17 01:25N 54°58' W 005°01'0 0.0
2017-Oct-17 00:49N 54°58' W 005°01'0 0.0
2017-Oct-17 00:28N 54°58' W 005°01'0 0.0
2017-Oct-16 23:58N 54°58' W 005°01'0 0.0
2017-Oct-16 23:28N 54°58' W 005°01'0 0.0
2017-Oct-16 21:34N 54°58' W 005°01'0 0.0
2017-Oct-16 21:13N 54°58' W 005°01'0 0.0
2017-Oct-16 19:01N 54°58' W 005°01'0 0.0
2017-Oct-16 16:49N 54°58' W 005°01'0 0.0
2017-Oct-16 16:29N 54°58' W 005°01'0 0.0
2017-Oct-16 15:59N 54°58' W 005°01'0 0.0
2017-Oct-16 15:30N 54°58' W 005°01'0 0.0
2017-Oct-16 14:46N 54°58' W 005°01'0 0.0
2017-Oct-16 14:00N 54°58' W 005°01'0 0.0
2017-Oct-16 13:30N 54°58' W 005°01'0 0.0
2017-Oct-16 13:00N 54°58' W 005°01'0 0.0
2017-Oct-16 12:30N 54°58' W 005°01'0 0.0
2017-Oct-16 12:00N 54°58' W 005°01'0 0.0
2017-Oct-16 11:30N 54°58' W 005°01'5 9.4
2017-Oct-16 10:56N 55°02' W 005°08'817.8
2017-Oct-16 10:31N 54°58' W 005°20'816.9
2017-Oct-16 10:01N 54°55' W 005°33'916.9
2017-Oct-16 09:29N 54°52' W 005°47'1 2.0
2017-Oct-16 09:01N 54°51' W 005°48'0 0.0
2017-Oct-16 08:30N 54°51' W 005°48'510.4
2017-Oct-16 08:00N 54°54' W 005°40'918.0
2017-Oct-16 07:30N 54°58' W 005°26'917.6
2017-Oct-16 07:00N 55°01' W 005°12'713.9
2017-Oct-16 06:31N 54°58' W 005°01'0 0.7
2017-Oct-16 06:00N 54°58' W 005°01'0 0.0
2017-Oct-16 05:26N 54°58' W 005°01'0 0.2
2017-Oct-16 04:59N 54°58' W 005°01'612.2
2017-Oct-16 04:30N 55°02' W 005°09'918.0
2017-Oct-16 04:00N 54°57' W 005°23'918.8
2017-Oct-16 03:31N 54°54' W 005°38'612.9
2017-Oct-16 03:00N 54°51' W 005°48'0 0.0
2017-Oct-16 02:30N 54°51' W 005°48'0 0.0
2017-Oct-16 02:00N 54°51' W 005°48'0 0.0
2017-Oct-16 01:31N 54°51' W 005°48'0 0.0
2017-Oct-16 01:01N 54°51' W 005°48'0 0.0
2017-Oct-16 00:31N 54°51' W 005°48'0 0.0
2017-Oct-16 00:00N 54°51' W 005°48'5 9.8
2017-Oct-15 23:31N 54°53' W 005°41'918.3
2017-Oct-15 23:00N 54°58' W 005°27'1118.1
2017-Oct-15 22:23N 55°02' W 005°08'615.2
2017-Oct-15 22:00N 54°58' W 005°01'0 0.2
2017-Oct-15 21:30N 54°58' W 005°01'0 0.0
2017-Oct-15 21:00N 54°58' W 005°01'611.0
2017-Oct-15 20:25N 55°01' W 005°10'818.4
2017-Oct-15 19:58N 54°58' W 005°23'918.3
2017-Oct-15 19:30N 54°54' W 005°36'714.9
2017-Oct-15 19:01N 54°51' W 005°48'0 0.1
2017-Oct-15 18:30N 54°51' W 005°48'0 0.0
2017-Oct-15 18:00N 54°51' W 005°48'0 0.0
2017-Oct-15 17:30N 54°51' W 005°48'612.3
2017-Oct-15 17:00N 54°54' W 005°39'918.0
2017-Oct-15 16:30N 54°58' W 005°25'918.2
2017-Oct-15 16:00N 55°01' W 005°10'612.5
2017-Oct-15 15:30N 54°58' W 005°01'0 0.0
2017-Oct-15 14:59N 54°58' W 005°01'0 0.0
2017-Oct-15 14:00N 54°58' W 005°01'6 9.3
2017-Oct-15 13:23N 55°01' W 005°09'717.9
2017-Oct-15 13:00N 54°59' W 005°19'918.2
2017-Oct-15 12:30N 54°55' W 005°33'917.6
2017-Oct-15 12:01N 54°51' W 005°48'1 1.1
2017-Oct-15 11:30N 54°51' W 005°48'0 0.0
2017-Oct-15 11:00N 54°51' W 005°48'0 0.0
2017-Oct-15 10:30N 54°51' W 005°48'0 0.0
2017-Oct-15 10:00N 54°51' W 005°48'0 0.0
2017-Oct-15 09:30N 54°51' W 005°48'0 0.0
2017-Oct-15 09:00N 54°51' W 005°48'0 0.0
2017-Oct-15 08:30N 54°51' W 005°48'612.5
2017-Oct-15 08:00N 54°54' W 005°39'917.3
2017-Oct-15 07:30N 54°58' W 005°25'917.5
2017-Oct-15 07:00N 55°02' W 005°11'712.3
2017-Oct-15 06:26N 54°58' W 005°01'0 0.0
2017-Oct-15 06:01N 54°58' W 005°01'0 0.0
2017-Oct-15 05:31N 54°58' W 005°01'0 0.0
2017-Oct-15 05:00N 54°58' W 005°01'0 0.0
2017-Oct-15 04:30N 54°58' W 005°01'0 0.0
2017-Oct-15 04:00N 54°58' W 005°01'0 0.0
2017-Oct-15 03:31N 54°58' W 005°01'0 0.0
2017-Oct-15 03:01N 54°58' W 005°01'0 0.0
2017-Oct-15 02:30N 54°58' W 005°01'0 0.0
2017-Oct-15 02:00N 54°58' W 005°01'0 0.0
2017-Oct-15 01:31N 54°58' W 005°01'0 0.0
2017-Oct-15 01:00N 54°58' W 005°01'0 0.0
2017-Oct-15 00:30N 54°58' W 005°01'0 0.0
2017-Oct-15 00:00N 54°58' W 005°01'0 0.0
2017-Oct-14 23:30N 54°58' W 005°01'0 0.0
2017-Oct-14 23:00N 54°58' W 005°01'0 0.0
2017-Oct-14 22:31N 54°58' W 005°01'0 0.0
2017-Oct-14 22:00N 54°58' W 005°01'0 0.0
2017-Oct-14 21:28N 54°58' W 005°01'0 0.3
2017-Oct-14 21:00N 54°58' W 005°01'612.9
2017-Oct-14 20:30N 55°01' W 005°11'918.8
2017-Oct-14 20:00N 54°57' W 005°25'918.5
2017-Oct-14 19:30N 54°53' W 005°40'510.1
2017-Oct-14 19:00N 54°51' W 005°48'0 0.0
2017-Oct-14 18:30N 54°51' W 005°48'0 0.0
2017-Oct-14 18:00N 54°51' W 005°48'0 0.0
2017-Oct-14 17:30N 54°51' W 005°48'4 7.9
2017-Oct-14 17:00N 54°53' W 005°42'917.8
2017-Oct-14 16:31N 54°57' W 005°28'917.9
2017-Oct-14 16:00N 55°01' W 005°14'714.0
2017-Oct-14 15:30N 54°59' W 005°02'1 2.8
2017-Oct-14 14:59N 54°58' W 005°01'0 0.0
2017-Oct-14 14:30N 54°58' W 005°01'5 9.2
2017-Oct-14 13:57N 55°02' W 005°07'716.8
2017-Oct-14 13:30N 54°59' W 005°19'816.9
2017-Oct-14 13:00N 54°55' W 005°32'917.4
2017-Oct-14 12:30N 54°52' W 005°46'2 3.3
2017-Oct-14 12:00N 54°51' W 005°48'0 0.0
2017-Oct-14 11:30N 54°51' W 005°48'4 8.3
2017-Oct-14 11:00N 54°53' W 005°42'917.8
2017-Oct-14 10:30N 54°58' W 005°28'917.2
2017-Oct-14 10:00N 55°01' W 005°14'713.9
2017-Oct-14 09:30N 54°59' W 005°03'2 3.0
2017-Oct-14 09:00N 54°58' W 005°01'0 0.0
2017-Oct-14 08:30N 54°58' W 005°01'5 9.7
2017-Oct-14 07:57N 55°02' W 005°07'918.6
2017-Oct-14 07:29N 54°58' W 005°21'918.4
2017-Oct-14 07:00N 54°54' W 005°35'816.4
2017-Oct-14 06:31N 54°51' W 005°48'0 0.2
2017-Oct-14 06:00N 54°51' W 005°48'0 0.0
2017-Oct-14 05:30N 54°51' W 005°48'0 0.0
2017-Oct-14 05:00N 54°51' W 005°48'5 9.1
2017-Oct-14 04:30N 54°53' W 005°41'917.7
2017-Oct-14 04:00N 54°57' W 005°27'917.8
2017-Oct-14 03:30N 55°01' W 005°13'713.4
2017-Oct-14 03:01N 54°59' W 005°02'1 2.7
2017-Oct-14 02:30N 54°58' W 005°01'0 0.0
2017-Oct-14 02:00N 54°58' W 005°01'0 0.0
2017-Oct-14 01:31N 54°58' W 005°01'0 0.0
2017-Oct-14 01:00N 54°58' W 005°01'510.0
2017-Oct-14 00:30N 55°02' W 005°07'918.0
2017-Oct-14 00:01N 54°58' W 005°21'918.8
2017-Oct-13 23:31N 54°54' W 005°36'815.1
2017-Oct-13 23:00N 54°51' W 005°48'0 0.2
2017-Oct-13 22:30N 54°51' W 005°48'0 0.0
2017-Oct-13 22:00N 54°51' W 005°48'0 0.0
2017-Oct-13 21:30N 54°51' W 005°48'0 0.0
2017-Oct-13 21:00N 54°51' W 005°48'4 7.6
2017-Oct-13 20:31N 54°53' W 005°43'917.3
2017-Oct-13 20:01N 54°57' W 005°29'917.6
2017-Oct-13 19:31N 55°00' W 005°15'714.6
2017-Oct-13 19:00N 54°59' W 005°03'2 3.1
2017-Oct-13 18:30N 54°58' W 005°01'0 0.0
2017-Oct-13 18:00N 54°58' W 005°01'0 0.0
2017-Oct-13 17:30N 54°58' W 005°01'6 9.4
2017-Oct-13 16:53N 55°01' W 005°09'718.1
2017-Oct-13 16:30N 54°59' W 005°19'918.2
2017-Oct-13 16:00N 54°55' W 005°34'917.5
2017-Oct-13 15:30N 54°51' W 005°48'0 0.6
2017-Oct-13 15:00N 54°51' W 005°48'0 0.0
2017-Oct-13 14:30N 54°51' W 005°48'713.3
2017-Oct-13 14:01N 54°54' W 005°38'917.8
2017-Oct-13 13:31N 54°58' W 005°24'918.3
2017-Oct-13 12:59N 55°01' W 005°09'611.9
2017-Oct-13 12:30N 54°58' W 005°01'0 0.0
2017-Oct-13 11:55N 54°58' W 005°01'0 0.0
2017-Oct-13 11:29N 54°58' W 005°01'5 9.0
2017-Oct-13 10:54N 55°02' W 005°07'718.7
2017-Oct-13 10:30N 54°59' W 005°19'1019.2
2017-Oct-13 10:00N 54°54' W 005°34'817.1
2017-Oct-13 09:30N 54°51' W 005°48'0 0.3
2017-Oct-13 09:00N 54°51' W 005°48'0 0.0
2017-Oct-13 08:30N 54°51' W 005°48'610.8
2017-Oct-13 08:00N 54°54' W 005°40'917.7
2017-Oct-13 07:30N 54°58' W 005°27'917.0
2017-Oct-13 07:00N 55°01' W 005°13'714.0
2017-Oct-13 06:30N 54°58' W 005°02'1 1.2
2017-Oct-13 05:56N 54°58' W 005°01'0 0.0
2017-Oct-13 05:26N 54°58' W 005°01'0 0.0
2017-Oct-13 04:56N 54°58' W 005°01'511.4
2017-Oct-13 04:29N 55°02' W 005°06'816.5
2017-Oct-13 04:00N 54°59' W 005°19'918.8
2017-Oct-13 03:30N 54°55' W 005°33'917.7
2017-Oct-13 03:00N 54°51' W 005°48'0 0.2
2017-Oct-13 02:30N 54°51' W 005°48'0 0.0
2017-Oct-13 02:00N 54°51' W 005°48'0 0.0
2017-Oct-13 01:30N 54°51' W 005°48'0 0.0
2017-Oct-13 01:00N 54°51' W 005°48'3 5.7
2017-Oct-13 00:30N 54°53' W 005°44'1020.0
2017-Oct-13 00:00N 54°57' W 005°29'1019.8
2017-Oct-12 23:30N 55°01' W 005°13'713.1
2017-Oct-12 23:01N 54°59' W 005°02'1 2.1
2017-Oct-12 22:30N 54°58' W 005°01'0 0.0
2017-Oct-12 22:00N 54°58' W 005°01'0 0.0
2017-Oct-12 21:30N 54°58' W 005°01'0 0.0
2017-Oct-12 21:00N 54°58' W 005°01'5 9.4
2017-Oct-12 20:28N 55°02' W 005°06'817.8
2017-Oct-12 20:00N 54°58' W 005°20'918.1
2017-Oct-12 19:30N 54°55' W 005°34'917.0
2017-Oct-12 19:00N 54°51' W 005°48'0 0.8
2017-Oct-12 18:30N 54°51' W 005°48'0 0.0
2017-Oct-12 18:00N 54°51' W 005°48'0 0.0
2017-Oct-12 17:30N 54°51' W 005°48'4 7.8
2017-Oct-12 17:00N 54°53' W 005°42'917.4
2017-Oct-12 16:30N 54°57' W 005°29'917.2
2017-Oct-12 16:00N 55°01' W 005°15'714.1
2017-Oct-12 15:30N 54°59' W 005°03'2 3.7
2017-Oct-12 15:00N 54°58' W 005°01'0 0.0
2017-Oct-12 14:30N 54°58' W 005°01'6 9.3
2017-Oct-12 13:55N 55°02' W 005°08'717.2
2017-Oct-12 13:30N 54°58' W 005°19'917.2
2017-Oct-12 13:01N 54°55' W 005°32'918.4
2017-Oct-12 12:30N 54°52' W 005°47'1 1.8
2017-Oct-12 11:55N 54°51' W 005°48'0 0.0
2017-Oct-12 11:29N 54°51' W 005°48'5 9.5
2017-Oct-12 11:00N 54°54' W 005°42'917.1
2017-Oct-12 10:30N 54°57' W 005°28'917.4
2017-Oct-12 10:00N 55°01' W 005°14'714.0
2017-Oct-12 09:30N 54°59' W 005°03'2 2.8
2017-Oct-12 08:58N 54°58' W 005°01'0 0.1
2017-Oct-12 08:26N 54°58' W 005°01'511.1
2017-Oct-12 07:57N 55°02' W 005°08'919.4
2017-Oct-12 07:30N 54°58' W 005°21'919.1
2017-Oct-12 07:00N 54°54' W 005°36'714.5
2017-Oct-12 06:30N 54°51' W 005°48'0 0.1
2017-Oct-12 06:00N 54°51' W 005°48'0 0.0
2017-Oct-12 05:30N 54°51' W 005°48'0 0.0
2017-Oct-12 05:00N 54°51' W 005°48'5 9.9
2017-Oct-12 04:30N 54°54' W 005°41'1020.3
2017-Oct-12 04:01N 54°58' W 005°25'1019.5
2017-Oct-12 03:30N 55°02' W 005°09'610.4
2017-Oct-12 02:55N 54°58' W 005°01'0 0.0
2017-Oct-12 02:28N 54°58' W 005°01'0 0.0
2017-Oct-12 01:43N 54°58' W 005°01'0 0.0
2017-Oct-12 01:28N 54°58' W 005°01'0 0.0
2017-Oct-12 01:00N 54°58' W 005°01'5 9.6
2017-Oct-12 00:28N 55°02' W 005°07'817.0
2017-Oct-12 00:01N 54°58' W 005°19'918.6
2017-Oct-11 23:31N 54°55' W 005°34'917.2
2017-Oct-11 23:00N 54°51' W 005°48'0 0.3
2017-Oct-11 22:30N 54°51' W 005°48'0 0.0
2017-Oct-11 22:00N 54°51' W 005°48'0 0.0
2017-Oct-11 21:30N 54°51' W 005°48'0 0.0
2017-Oct-11 21:00N 54°51' W 005°48'5 9.3
2017-Oct-11 20:30N 54°53' W 005°41'917.9
2017-Oct-11 20:00N 54°57' W 005°27'816.6
2017-Oct-11 19:30N 55°01' W 005°14'713.8
2017-Oct-11 19:00N 54°59' W 005°02'1 1.8
2017-Oct-11 18:14N 54°58' W 005°01'0 0.0
2017-Oct-11 17:56N 54°58' W 005°01'0 0.0
2017-Oct-11 17:29N 54°58' W 005°01'5 9.3
2017-Oct-11 16:55N 55°02' W 005°07'12 0.7
2017-Oct-11 00:00N 54°57' W 005°26'816.5
2017-Oct-10 23:30N 55°01' W 005°13'713.1
2017-Oct-10 23:00N 54°59' W 005°02'1 2.4
2017-Oct-10 22:30N 54°58' W 005°01'0 0.0
2017-Oct-10 22:00N 54°58' W 005°01'0 0.0
2017-Oct-10 21:29N 54°58' W 005°01'0 0.0
2017-Oct-10 21:00N 54°58' W 005°01'5 9.4
2017-Oct-10 20:25N 55°02' W 005°08'717.4
2017-Oct-10 20:00N 54°58' W 005°19'  

Dump ship's entire track history